Time;durP1;ratioP1;P1;durP2;ratioP2;P2;SDS_P1;SDS_P2;PMS_P1;PMS_P2;Temp;Humidity;BMP_temperature;BMP_pressure;BME280_temperature;BME280_humidity;BME280_pressure;Samples;Min_cycle;Max_cycle;Signal;HPM_P1;HPM_P2
2023/09/24 00:01:14;;;;;;;3.65;1.80;;;35.10;99.90;;;;;;5032093;28;20056;-71
2023/09/24 00:03:40;;;;;;;3.88;1.92;;;35.10;99.90;;;;;;5042562;28;20040;-71
2023/09/24 00:06:08;;;;;;;2.60;1.83;;;35.10;99.90;;;;;;5037371;28;20045;-71
2023/09/24 00:08:35;;;;;;;2.92;1.67;;;35.10;99.90;;;;;;5033954;28;20422;-71
2023/09/24 00:11:02;;;;;;;2.80;2.10;;;35.10;99.90;;;;;;5038991;28;20068;-71
2023/09/24 00:13:28;;;;;;;1.85;1.50;;;35.00;99.90;;;;;;5030546;28;20384;-71
2023/09/24 00:15:54;;;;;;;3.30;1.75;;;35.10;99.90;;;;;;5036819;28;20114;-71
2023/09/24 00:18:25;;;;;;;2.38;1.77;;;35.00;99.90;;;;;;5032812;28;20404;-71
2023/09/24 00:20:51;;;;;;;3.53;1.52;;;35.00;99.90;;;;;;5030251;28;20096;-71
2023/09/24 00:23:17;;;;;;;2.58;1.48;;;35.10;99.90;;;;;;5032710;28;20395;-71
2023/09/24 00:25:44;;;;;;;2.00;1.30;;;35.00;99.90;;;;;;5030180;28;20489;-71
2023/09/24 00:28:09;;;;;;;1.92;1.20;;;35.00;99.90;;;;;;5030022;28;20075;-71
2023/09/24 00:30:36;;;;;;;2.60;1.40;;;35.00;99.90;;;;;;5030945;28;20017;-70
2023/09/24 00:33:03;;;;;;;4.03;1.30;;;35.10;99.90;;;;;;5027540;28;20022;-70
2023/09/24 00:35:30;;;;;;;4.22;1.30;;;35.10;99.90;;;;;;5036192;28;20022;-72
2023/09/24 00:37:55;;;;;;;1.70;1.40;;;35.00;99.90;;;;;;5032480;28;20033;-71
2023/09/24 00:40:21;;;;;;;2.03;1.40;;;35.10;99.90;;;;;;5042865;28;20048;-71
2023/09/24 00:42:47;;;;;;;3.40;1.27;;;35.10;99.90;;;;;;5032360;28;20041;-72
2023/09/24 00:45:14;;;;;;;2.17;1.38;;;35.10;99.90;;;;;;5031041;28;20341;-71
2023/09/24 00:47:42;;;;;;;3.97;1.83;;;35.00;99.90;;;;;;5045170;28;20379;-71
2023/09/24 00:50:09;;;;;;;2.03;1.42;;;35.00;99.90;;;;;;5032979;28;20018;-71
2023/09/24 00:52:36;;;;;;;1.95;1.35;;;35.00;99.90;;;;;;5028997;28;20026;-72
2023/09/24 00:55:03;;;;;;;2.60;1.38;;;35.00;99.90;;;;;;5032344;28;20021;-72
2023/09/24 00:57:31;;;;;;;1.58;1.08;;;35.00;99.90;;;;;;5027981;28;20112;-72
2023/09/24 00:59:58;;;;;;;2.58;1.38;;;35.00;99.90;;;;;;5031911;28;20061;-72
2023/09/24 01:02:24;;;;;;;2.05;0.95;;;35.00;99.90;;;;;;5032156;28;20013;-72
2023/09/24 01:04:53;;;;;;;2.78;1.35;;;35.00;99.90;;;;;;5029753;28;20025;-71
2023/09/24 01:07:23;;;;;;;2.97;1.00;;;35.00;99.90;;;;;;5018719;28;20017;-72
2023/09/24 01:09:49;;;;;;;2.83;1.23;;;35.00;99.90;;;;;;5025608;28;20049;-72
2023/09/24 01:12:22;;;;;;;1.52;1.33;;;35.00;99.90;;;;;;5033390;28;20479;-72
2023/09/24 01:14:53;;;;;;;4.00;1.40;;;35.00;99.90;;;;;;5030680;28;20383;-71
2023/09/24 01:17:20;;;;;;;1.20;1.10;;;35.00;99.90;;;;;;5030192;28;20183;-72
2023/09/24 01:19:46;;;;;;;1.90;1.40;;;34.90;99.90;;;;;;5031399;28;20017;-69
2023/09/24 01:22:12;;;;;;;1.45;0.93;;;35.00;99.90;;;;;;5027646;28;20050;-71
2023/09/24 01:24:39;;;;;;;1.98;1.00;;;35.00;99.90;;;;;;5032040;28;20046;-72
2023/09/24 01:27:05;;;;;;;1.90;1.20;;;34.90;99.90;;;;;;5029336;28;20037;-72
2023/09/24 01:29:31;;;;;;;4.13;1.33;;;35.00;99.90;;;;;;5027855;28;20104;-69
2023/09/24 01:31:56;;;;;;;1.30;1.10;;;34.90;99.90;;;;;;5028165;28;20079;-70
2023/09/24 01:34:22;;;;;;;1.77;1.20;;;35.00;99.90;;;;;;5027534;28;20061;-70
2023/09/24 01:36:49;;;;;;;2.35;1.10;;;35.00;99.90;;;;;;5029288;28;20068;-70
2023/09/24 01:39:18;;;;;;;1.25;0.82;;;35.00;99.90;;;;;;5027947;28;20044;-71
2023/09/24 01:41:45;;;;;;;0.95;0.82;;;35.00;99.90;;;;;;5030510;28;20021;-70
2023/09/24 01:44:13;;;;;;;1.17;1.05;;;35.00;99.90;;;;;;5030881;28;20039;-70
2023/09/24 01:46:38;;;;;;;6.40;1.20;;;35.00;99.90;;;;;;5011945;28;20395;-70
2023/09/24 01:49:04;;;;;;;1.73;1.15;;;35.00;99.90;;;;;;5031286;28;20034;-70
2023/09/24 01:51:31;;;;;;;1.63;1.15;;;35.00;99.90;;;;;;5029414;28;20498;-70
2023/09/24 01:53:59;;;;;;;2.63;1.20;;;34.90;99.90;;;;;;5031361;28;20029;-71
2023/09/24 01:56:24;;;;;;;1.55;0.93;;;35.00;99.90;;;;;;5031009;28;20026;-70
2023/09/24 01:58:51;;;;;;;2.83;0.95;;;35.00;99.90;;;;;;5030886;28;20037;-71
2023/09/24 02:01:17;;;;;;;1.30;0.98;;;35.00;99.90;;;;;;5031037;28;20332;-71
2023/09/24 02:03:46;;;;;;;2.35;1.20;;;34.90;99.90;;;;;;5029857;28;20040;-71
2023/09/24 02:06:17;;;;;;;1.40;1.10;;;34.90;99.90;;;;;;5031291;28;20022;-71
2023/09/24 02:08:43;;;;;;;1.65;1.30;;;34.90;99.90;;;;;;5002140;28;20839;-71
2023/09/24 02:11:08;;;;;;;1.23;0.80;;;34.90;99.90;;;;;;5034175;28;20075;-71
2023/09/24 02:13:34;;;;;;;2.22;0.88;;;34.90;99.90;;;;;;5031447;28;20030;-71
2023/09/24 02:16:00;;;;;;;1.75;0.98;;;34.90;99.90;;;;;;5030782;28;20080;-70
2023/09/24 02:18:32;;;;;;;1.80;1.00;;;34.90;99.90;;;;;;5035945;28;20029;-71
2023/09/24 02:21:01;;;;;;;1.70;1.17;;;34.80;99.90;;;;;;5029795;28;20056;-71
2023/09/24 02:23:26;;;;;;;1.88;1.40;;;34.90;99.90;;;;;;5030660;28;20032;-70
2023/09/24 02:25:52;;;;;;;2.22;0.90;;;34.90;99.90;;;;;;5038124;28;20474;-70
2023/09/24 02:28:18;;;;;;;1.65;1.00;;;34.90;99.90;;;;;;5031085;28;20479;-70
2023/09/24 02:30:44;;;;;;;2.97;1.70;;;34.90;99.90;;;;;;5029183;28;20101;-71
2023/09/24 02:33:10;;;;;;;1.60;0.90;;;34.90;99.90;;;;;;5030654;28;20037;-71
2023/09/24 02:35:36;;;;;;;1.88;1.00;;;34.90;99.90;;;;;;5030035;28;20029;-70
2023/09/24 02:38:04;;;;;;;2.15;1.15;;;34.90;99.90;;;;;;5030915;28;20079;-70
2023/09/24 02:40:30;;;;;;;2.80;1.38;;;34.90;99.90;;;;;;5031282;28;20029;-71
2023/09/24 02:42:57;;;;;;;2.60;0.93;;;34.90;99.90;;;;;;5011277;28;20033;-70
2023/09/24 02:45:24;;;;;;;2.55;1.20;;;34.80;99.90;;;;;;5030846;28;20025;-70
2023/09/24 02:47:50;;;;;;;2.60;1.02;;;34.90;99.90;;;;;;5025944;28;20049;-70
2023/09/24 02:50:18;;;;;;;1.52;1.33;;;34.80;99.90;;;;;;5031007;28;20041;-71
2023/09/24 02:52:48;;;;;;;2.83;1.40;;;34.80;99.90;;;;;;5032605;28;20549;-70
2023/09/24 02:55:15;;;;;;;2.35;1.40;;;34.70;99.90;;;;;;5030926;28;20068;-70
2023/09/24 02:57:44;;;;;;;2.08;1.38;;;34.80;99.90;;;;;;5034370;28;20472;-70
2023/09/24 03:00:15;;;;;;;2.25;1.17;;;34.80;99.90;;;;;;5015468;28;20021;-70
2023/09/24 03:02:41;;;;;;;2.58;1.77;;;34.80;99.90;;;;;;5021337;28;20183;-70
2023/09/24 03:05:11;;;;;;;3.50;1.30;;;34.80;99.90;;;;;;5031424;28;20100;-70
2023/09/24 03:07:38;;;;;;;3.75;1.60;;;34.80;99.90;;;;;;5028185;28;20014;-70
2023/09/24 03:10:07;;;;;;;2.70;1.50;;;34.80;99.90;;;;;;5033718;28;20025;-70
2023/09/24 03:12:36;;;;;;;1.92;1.50;;;34.80;99.90;;;;;;5038570;28;20028;-70
2023/09/24 03:15:03;;;;;;;3.78;2.08;;;34.80;99.90;;;;;;5042686;28;20038;-70
2023/09/24 03:17:28;;;;;;;2.92;1.98;;;34.80;99.90;;;;;;5032129;28;20087;-70
2023/09/24 03:19:54;;;;;;;2.85;1.65;;;34.80;99.90;;;;;;5031961;28;20034;-70
2023/09/24 03:22:21;;;;;;;3.28;2.17;;;34.80;99.90;;;;;;5033478;28;20738;-70
2023/09/24 03:24:47;;;;;;;3.30;1.95;;;34.80;99.90;;;;;;5044125;28;20480;-70
2023/09/24 03:27:14;;;;;;;3.65;1.83;;;34.80;99.90;;;;;;5033843;28;20025;-70
2023/09/24 03:29:40;;;;;;;3.13;1.90;;;34.80;99.90;;;;;;5032070;28;20034;-70
2023/09/24 03:32:06;;;;;;;4.03;1.98;;;34.80;99.90;;;;;;5046514;28;20025;-70
2023/09/24 03:34:31;;;;;;;2.47;1.65;;;34.70;99.90;;;;;;5034694;28;20475;-70
2023/09/24 03:36:57;;;;;;;4.43;1.52;;;34.80;99.90;;;;;;5029707;28;20030;-70
2023/09/24 03:39:25;;;;;;;2.33;1.30;;;34.80;99.90;;;;;;5048811;28;20033;-70
2023/09/24 03:41:51;;;;;;;1.80;1.20;;;34.80;99.90;;;;;;5012844;28;20033;-70
2023/09/24 03:44:17;;;;;;;3.55;1.30;;;34.80;99.90;;;;;;5035273;28;20041;-70
2023/09/24 03:46:42;;;;;;;2.38;1.10;;;34.70;99.90;;;;;;5033649;28;20036;-70
2023/09/24 03:49:08;;;;;;;1.92;1.42;;;34.70;99.90;;;;;;5030898;28;20044;-70
2023/09/24 03:51:33;;;;;;;2.17;1.13;;;34.70;99.90;;;;;;5033630;28;20024;-70
2023/09/24 03:53:59;;;;;;;2.45;1.55;;;34.70;99.90;;;;;;5033536;28;20036;-70
2023/09/24 03:56:25;;;;;;;2.42;1.60;;;34.80;99.90;;;;;;5040221;28;20017;-70
2023/09/24 03:58:50;;;;;;;2.08;1.33;;;34.80;99.90;;;;;;5033310;28;20403;-70
2023/09/24 04:01:17;;;;;;;2.38;1.50;;;34.80;99.90;;;;;;5030058;28;20415;-71
2023/09/24 04:03:43;;;;;;;4.32;1.63;;;34.70;99.90;;;;;;5015383;28;20337;-71
2023/09/24 04:06:11;;;;;;;4.47;2.20;;;34.70;99.90;;;;;;5030324;28;20022;-70
2023/09/24 04:08:36;;;;;;;2.95;1.50;;;34.70;99.90;;;;;;5049614;28;20025;-70
2023/09/24 04:11:07;;;;;;;1.92;1.30;;;34.70;99.90;;;;;;5034620;28;20040;-70
2023/09/24 04:13:32;;;;;;;3.47;1.77;;;34.70;99.90;;;;;;5031817;28;20034;-70
2023/09/24 04:16:06;;;;;;;2.25;1.48;;;34.70;99.90;;;;;;5033023;28;20492;-70
2023/09/24 04:18:33;;;;;;;5.50;1.97;;;34.70;99.90;;;;;;5030928;28;20455;-70
2023/09/24 04:21:00;;;;;;;2.20;1.60;;;34.70;99.90;;;;;;5040924;28;20132;-70
2023/09/24 04:23:25;;;;;;;3.00;1.80;;;34.70;99.90;;;;;;5034572;28;20041;-70
2023/09/24 04:25:52;;;;;;;3.53;2.05;;;34.70;99.90;;;;;;5030356;28;20140;-70
2023/09/24 04:28:19;;;;;;;3.55;1.77;;;34.70;99.90;;;;;;5030302;28;20399;-70
2023/09/24 04:30:46;;;;;;;2.53;1.70;;;34.70;99.90;;;;;;5032530;28;20029;-70
2023/09/24 04:33:12;;;;;;;2.72;1.70;;;34.70;99.90;;;;;;5029788;28;20082;-70
2023/09/24 04:35:37;;;;;;;6.15;1.92;;;34.70;99.90;;;;;;5047854;28;20018;-71
2023/09/24 04:38:03;;;;;;;2.08;1.48;;;34.70;99.90;;;;;;5030304;28;20026;-70
2023/09/24 04:40:29;;;;;;;3.22;1.65;;;34.70;99.90;;;;;;5032608;28;20430;-71
2023/09/24 04:42:55;;;;;;;3.13;1.45;;;34.70;99.90;;;;;;5033164;28;20033;-70
2023/09/24 04:45:20;;;;;;;1.98;1.52;;;34.70;99.90;;;;;;5031352;28;20036;-70
2023/09/24 04:47:48;;;;;;;3.75;1.50;;;34.60;99.90;;;;;;5032518;28;20026;-70
2023/09/24 04:50:14;;;;;;;2.63;1.30;;;34.60;99.90;;;;;;5027484;28;20026;-71
2023/09/24 04:52:41;;;;;;;4.95;2.00;;;34.70;99.90;;;;;;5030036;28;20108;-70
2023/09/24 04:55:08;;;;;;;3.97;1.55;;;34.70;99.90;;;;;;5032240;28;20095;-71
2023/09/24 04:57:34;;;;;;;1.80;1.45;;;34.60;99.90;;;;;;5027172;28;20029;-70
2023/09/24 05:00:00;;;;;;;3.13;1.65;;;34.70;99.90;;;;;;5032451;28;20523;-71
2023/09/24 05:02:25;;;;;;;2.20;1.40;;;34.60;99.90;;;;;;5029929;28;20069;-71
2023/09/24 05:04:52;;;;;;;2.65;1.50;;;34.60;99.90;;;;;;5032070;28;20029;-71
2023/09/24 05:07:18;;;;;;;2.83;1.63;;;34.60;99.90;;;;;;5030950;28;20021;-70
2023/09/24 05:09:44;;;;;;;2.30;1.60;;;34.60;99.90;;;;;;5035238;28;20083;-71
2023/09/24 05:12:10;;;;;;;4.25;1.38;;;34.60;99.90;;;;;;5032153;28;20112;-71
2023/09/24 05:14:36;;;;;;;1.58;1.15;;;34.60;99.90;;;;;;5008526;28;20037;-70
2023/09/24 05:17:02;;;;;;;1.40;1.30;;;34.60;99.90;;;;;;5012589;28;20022;-70
2023/09/24 05:19:28;;;;;;;3.25;1.20;;;34.60;99.90;;;;;;5020358;28;20042;-70
2023/09/24 05:21:53;;;;;;;1.38;1.10;;;34.60;99.90;;;;;;5029786;28;20045;-71
2023/09/24 05:24:19;;;;;;;4.78;1.60;;;34.50;99.90;;;;;;5031977;28;20033;-70
2023/09/24 05:26:45;;;;;;;1.58;1.40;;;34.60;99.90;;;;;;5008977;28;20105;-70
2023/09/24 05:29:10;;;;;;;2.45;1.33;;;34.50;99.90;;;;;;5030692;28;20480;-70
2023/09/24 05:31:37;;;;;;;4.28;1.83;;;34.60;99.90;;;;;;5025111;28;20029;-70
2023/09/24 05:34:06;;;;;;;1.73;1.00;;;34.50;99.90;;;;;;5029547;28;20026;-70
2023/09/24 05:36:32;;;;;;;5.13;2.40;;;34.50;99.90;;;;;;5027706;28;20101;-70
2023/09/24 05:39:04;;;;;;;2.38;1.30;;;34.60;99.90;;;;;;5027717;28;20021;-70
2023/09/24 05:41:30;;;;;;;2.28;1.30;;;34.60;99.90;;;;;;5027646;28;20025;-70
2023/09/24 05:44:01;;;;;;;1.33;0.93;;;34.50;99.90;;;;;;5023197;28;20038;-70
2023/09/24 05:46:26;;;;;;;3.53;1.13;;;34.60;99.90;;;;;;5030921;28;20029;-70
2023/09/24 05:48:55;;;;;;;2.65;1.25;;;34.50;99.90;;;;;;5029121;28;20037;-70
2023/09/24 05:51:21;;;;;;;2.15;1.05;;;34.50;99.90;;;;;;5031596;28;20044;-69
2023/09/24 05:53:46;;;;;;;2.28;1.30;;;34.50;99.90;;;;;;5031695;28;20487;-70
2023/09/24 05:56:12;;;;;;;2.85;1.15;;;34.60;99.90;;;;;;5033145;28;20041;-70
2023/09/24 05:58:38;;;;;;;1.75;1.00;;;34.60;99.90;;;;;;5037788;28;20029;-70
2023/09/24 06:01:03;;;;;;;2.28;1.13;;;34.60;99.90;;;;;;5011083;28;20021;-70
2023/09/24 06:03:29;;;;;;;1.25;0.98;;;34.60;99.90;;;;;;5027729;28;20128;-70
2023/09/24 06:05:55;;;;;;;1.02;0.88;;;34.60;99.90;;;;;;5031272;28;20067;-70
2023/09/24 06:08:20;;;;;;;1.02;0.70;;;34.60;99.90;;;;;;5031101;28;20163;-70
2023/09/24 06:10:47;;;;;;;1.30;0.68;;;34.60;99.90;;;;;;5039289;28;20529;-70
2023/09/24 06:13:14;;;;;;;1.67;0.70;;;34.60;99.90;;;;;;5019478;28;20531;-70
2023/09/24 06:15:41;;;;;;;1.52;0.65;;;34.60;99.90;;;;;;5030556;28;20067;-70
2023/09/24 06:18:06;;;;;;;1.40;0.90;;;34.60;99.90;;;;;;5026664;28;20079;-70
2023/09/24 06:20:36;;;;;;;0.90;0.57;;;34.60;99.90;;;;;;5032250;28;20157;-69
2023/09/24 06:23:02;;;;;;;1.58;0.82;;;34.60;99.90;;;;;;5032011;28;20116;-70
2023/09/24 06:25:28;;;;;;;3.65;0.82;;;34.70;99.90;;;;;;5016278;28;20099;-70
2023/09/24 06:27:54;;;;;;;1.10;0.80;;;34.70;99.90;;;;;;5020766;28;20034;-70
2023/09/24 06:30:19;;;;;;;1.08;0.80;;;34.70;99.90;;;;;;5034941;28;20440;-70
2023/09/24 06:32:45;;;;;;;3.38;0.88;;;34.70;99.90;;;;;;5034832;28;20029;-69
2023/09/24 06:35:11;;;;;;;1.58;0.90;;;34.70;99.90;;;;;;5016989;28;20021;-70
2023/09/24 06:37:36;;;;;;;2.42;1.15;;;34.70;99.90;;;;;;5032136;28;20029;-70
2023/09/24 06:40:03;;;;;;;1.92;0.90;;;34.70;99.90;;;;;;5034700;28;20018;-70
2023/09/24 06:42:28;;;;;;;1.60;1.30;;;34.70;99.90;;;;;;5028383;28;20116;-71
2023/09/24 06:44:54;;;;;;;3.05;1.52;;;34.70;99.90;;;;;;5033732;28;20196;-70
2023/09/24 06:47:19;;;;;;;1.50;0.90;;;34.70;99.90;;;;;;5034556;28;20467;-70
2023/09/24 06:49:49;;;;;;;2.65;1.42;;;34.70;99.90;;;;;;5039738;28;20546;-70
2023/09/24 06:52:14;;;;;;;2.45;1.02;;;34.70;99.90;;;;;;5037232;28;20021;-70
2023/09/24 06:54:40;;;;;;;2.05;1.50;;;34.70;99.90;;;;;;5029702;28;20373;-70
2023/09/24 06:57:06;;;;;;;1.73;0.93;;;34.70;99.90;;;;;;5027440;28;20052;-71
2023/09/24 06:59:31;;;;;;;2.10;1.50;;;34.80;99.90;;;;;;5029191;28;20029;-71
2023/09/24 07:01:57;;;;;;;3.47;1.75;;;34.80;99.90;;;;;;5024866;28;20026;-71
2023/09/24 07:04:23;;;;;;;1.55;1.00;;;34.80;99.90;;;;;;5029071;28;20052;-71
2023/09/24 07:06:51;;;;;;;4.38;1.45;;;34.80;99.90;;;;;;5029333;28;20036;-71
2023/09/24 07:09:16;;;;;;;2.67;2.05;;;34.80;99.90;;;;;;5034389;28;20025;-71
2023/09/24 07:11:42;;;;;;;3.97;2.47;;;34.80;99.90;;;;;;5035063;28;20041;-71
2023/09/24 07:14:07;;;;;;;3.83;2.05;;;34.80;99.90;;;;;;5022750;28;20425;-71
2023/09/24 07:16:34;;;;;;;8.07;3.55;;;34.80;99.90;;;;;;5034511;28;20080;-72
2023/09/24 07:19:00;;;;;;;3.28;1.92;;;34.80;99.90;;;;;;5030045;28;20528;-71
2023/09/24 07:21:28;;;;;;;4.32;2.22;;;34.80;99.90;;;;;;5034609;28;20076;-71
2023/09/24 07:23:55;;;;;;;3.95;2.33;;;34.80;99.90;;;;;;5029196;28;20034;-71
2023/09/24 07:26:22;;;;;;;2.95;2.15;;;34.90;99.90;;;;;;5033815;28;20068;-71
2023/09/24 07:28:49;;;;;;;5.70;2.60;;;34.90;99.90;;;;;;5034046;28;20013;-72
2023/09/24 07:31:21;;;;;;;4.13;2.10;;;34.90;99.90;;;;;;5002512;28;20030;-71
2023/09/24 07:33:52;;;;;;;2.65;1.75;;;34.90;99.90;;;;;;5034020;28;20096;-71
2023/09/24 07:36:18;;;;;;;3.25;1.75;;;34.90;99.90;;;;;;5031669;28;20033;-73
2023/09/24 07:38:45;;;;;;;4.40;1.50;;;34.90;99.90;;;;;;5033566;28;20025;-73
2023/09/24 07:41:11;;;;;;;2.80;1.92;;;35.00;99.90;;;;;;5031236;28;20025;-74
2023/09/24 07:43:38;;;;;;;3.83;1.55;;;35.00;99.90;;;;;;5024421;28;20069;-73
2023/09/24 07:46:07;;;;;;;7.55;3.55;;;34.90;99.90;;;;;;5031520;28;20156;-66
2023/09/24 07:48:33;;;;;;;4.22;2.75;;;35.00;99.90;;;;;;5029991;28;20462;-66
2023/09/24 07:50:59;;;;;;;5.15;3.13;;;35.00;99.90;;;;;;5031600;28;20076;-66
2023/09/24 07:53:24;;;;;;;4.68;2.95;;;35.00;99.90;;;;;;5025931;28;20071;-67
2023/09/24 07:55:57;;;;;;;3.17;2.05;;;35.00;99.90;;;;;;5037147;28;20021;-67
2023/09/24 07:58:24;;;;;;;5.45;3.17;;;35.00;99.90;;;;;;5028463;28;20159;-66
2023/09/24 08:00:54;;;;;;;5.60;2.92;;;35.00;99.90;;;;;;5024731;28;20033;-67
2023/09/24 08:03:20;;;;;;;3.13;1.67;;;35.10;99.90;;;;;;5033279;28;20063;-66
2023/09/24 08:05:46;;;;;;;3.17;1.88;;;35.10;99.90;;;;;;5033424;28;20017;-66
2023/09/24 08:08:12;;;;;;;5.47;1.80;;;35.10;99.90;;;;;;5033172;28;20024;-67
2023/09/24 08:10:38;;;;;;;2.33;1.48;;;35.10;99.90;;;;;;5048494;28;20025;-67
2023/09/24 08:13:04;;;;;;;2.25;1.95;;;35.10;99.90;;;;;;5031560;28;20053;-67
2023/09/24 08:15:30;;;;;;;3.55;2.05;;;35.10;99.90;;;;;;5031378;28;20091;-68
2023/09/24 08:17:56;;;;;;;4.45;2.28;;;35.20;99.90;;;;;;5029746;28;20025;-67
2023/09/24 08:20:22;;;;;;;4.43;2.17;;;35.20;99.90;;;;;;5025093;28;20025;-66
2023/09/24 08:22:48;;;;;;;5.97;2.25;;;35.20;99.90;;;;;;5033204;28;20030;-66
2023/09/24 08:25:14;;;;;;;2.33;1.42;;;35.20;99.90;;;;;;5032833;28;20075;-66
2023/09/24 08:27:40;;;;;;;3.60;2.22;;;35.20;99.90;;;;;;5032812;28;20022;-66
2023/09/24 08:30:06;;;;;;;4.20;2.75;;;35.30;99.90;;;;;;5032826;28;20396;-65
2023/09/24 08:32:32;;;;;;;2.75;1.15;;;35.30;99.90;;;;;;5033001;28;20029;-66
2023/09/24 08:34:57;;;;;;;2.47;1.70;;;35.30;99.90;;;;;;5031344;28;20124;-66
2023/09/24 08:37:23;;;;;;;2.65;1.35;;;35.30;99.90;;;;;;5032465;28;20033;-66
2023/09/24 08:39:49;;;;;;;4.13;1.83;;;;;;;;;;5032552;28;20009;-66
2023/09/24 08:42:17;;;;;;;1.95;1.13;;;;;;;;;;5030869;28;20167;-65
2023/09/24 08:44:46;;;;;;;3.80;1.75;;;35.30;99.90;;;;;;5015007;28;20029;-65
2023/09/24 08:47:12;;;;;;;6.40;1.95;;;35.40;99.90;;;;;;5030817;28;20109;-65
2023/09/24 08:49:40;;;;;;;3.08;1.58;;;35.40;99.90;;;;;;5018246;28;20100;-63
2023/09/24 08:52:09;;;;;;;7.97;3.20;;;35.40;99.90;;;;;;5018832;28;20446;-63
2023/09/24 08:54:35;;;;;;;2.88;1.73;;;35.40;99.90;;;;;;5028371;28;20099;-62
2023/09/24 08:57:01;;;;;;;3.15;1.63;;;35.50;99.90;;;;;;5032660;28;20040;-62
2023/09/24 08:59:26;;;;;;;1.70;1.27;;;35.50;99.90;;;;;;5031123;28;20472;-63
2023/09/24 09:01:55;;;;;;;2.10;0.90;;;35.50;99.90;;;;;;5032185;28;20022;-63
2023/09/24 09:04:21;;;;;;;2.22;1.00;;;35.50;99.90;;;;;;5032056;28;20034;-62
2023/09/24 09:06:46;;;;;;;1.52;1.10;;;35.60;99.90;;;;;;5029668;28;20030;-63
2023/09/24 09:09:24;;;;;;;2.35;1.55;;;35.50;99.90;;;;;;5032198;28;20060;-62
2023/09/24 09:11:50;;;;;;;2.33;0.85;;;35.60;99.90;;;;;;5024551;28;20386;-67
2023/09/24 09:14:16;;;;;;;1.75;1.00;;;35.60;99.90;;;;;;5031747;28;20028;-63
2023/09/24 09:16:57;;;;;;;2.60;0.77;;;35.60;99.90;;;;;;5032076;28;20052;-63
2023/09/24 09:19:23;;;;;;;3.17;1.30;;;35.70;99.90;;;;;;5006705;28;20029;-63
2023/09/24 09:21:49;;;;;;;3.33;1.20;;;35.70;99.90;;;;;;5031834;28;20519;-63
2023/09/24 09:24:25;;;;;;;5.63;2.75;;;35.70;99.90;;;;;;5029039;28;20053;-64
2023/09/24 09:26:56;;;;;;;3.28;1.52;;;35.80;99.90;;;;;;5032127;28;20025;-64
2023/09/24 09:29:27;;;;;;;3.28;1.10;;;35.70;99.90;;;;;;5030664;28;20490;-64
2023/09/24 09:31:54;;;;;;;3.15;1.55;;;35.80;99.90;;;;;;5027949;28;20071;-64
2023/09/24 09:34:20;;;;;;;2.28;1.15;;;35.80;99.90;;;;;;5033659;28;20397;-67
2023/09/24 09:36:47;;;;;;;2.95;1.85;;;;;;;;;;5030031;28;20009;-69
2023/09/24 09:39:13;;;;;;;2.45;1.10;;;;;;;;;;5027702;28;20026;-66
2023/09/24 09:41:42;;;;;;;1.80;1.20;;;;;;;;;;5011946;28;20022;-65
2023/09/24 09:44:09;;;;;;;3.03;1.20;;;;;;;;;;5026104;28;20061;-64
2023/09/24 09:46:35;;;;;;;3.70;1.02;;;;;;;;;;5028507;28;20383;-65
2023/09/24 09:49:05;;;;;;;6.20;1.20;;;;;;;;;;5031233;28;20044;-71
2023/09/24 09:51:34;;;;;;;4.13;1.42;;;;;;;;;;5028240;28;20029;-66
2023/09/24 09:54:06;;;;;;;1.98;1.13;;;;;;;;;;5008117;28;20454;-68
2023/09/24 09:56:33;;;;;;;2.35;0.88;;;;;;;;;;5031468;28;20025;-66
2023/09/24 09:58:59;;;;;;;4.03;1.63;;;;;;;;;;5029986;28;20032;-66
2023/09/24 10:01:25;;;;;;;1.65;1.02;;;;;;;;;;5018276;28;20026;-65
2023/09/24 10:03:52;;;;;;;2.15;0.90;;;;;;;;;;5032613;28;20044;-67
2023/09/24 10:06:19;;;;;;;0.75;0.70;;;;;;;;;;5035459;28;20026;-68
2023/09/24 10:08:48;;;;;;;3.72;1.60;;;;;;;;;;5035499;28;20032;-65
2023/09/24 10:11:32;;;;;;;4.82;1.40;;;;;;;;;;5036950;28;20068;-66
2023/09/24 10:14:03;;;;;;;4.50;1.30;;;;;;;;;;5030590;28;20036;-64
2023/09/24 10:16:35;;;;;;;5.70;1.05;;;;;;;;;;5030439;28;20032;-69
2023/09/24 10:19:01;;;;;;;3.17;1.42;;;;;;;;;;5032686;28;20021;-69
2023/09/24 10:21:34;;;;;;;3.60;1.35;;;;;;;;;;5034880;28;20115;-69
2023/09/24 10:24:20;;;;;;;2.60;1.23;;;;;;;;;;5035389;28;20056;-69
2023/09/24 10:27:03;;;;;;;2.65;1.30;;;;;;;;;;5023951;28;20384;-63
2023/09/24 10:29:55;;;;;;;1.70;1.00;;;;;;;;;;5035360;28;20086;-63
2023/09/24 10:32:21;;;;;;;5.65;1.80;;;;;;;;;;5030314;28;20071;-63
2023/09/24 10:34:54;;;;;;;3.67;2.28;;;;;;;;;;5030940;28;20022;-63
2023/09/24 10:37:20;;;;;;;4.57;2.42;;;;;;;;;;5016949;28;20354;-62
2023/09/24 10:40:04;;;;;;;2.30;1.15;;;;;;;;;;5030959;28;20052;-62
2023/09/24 10:42:34;;;;;;;2.60;1.13;;;;;;;;;;5034299;28;20025;-62
2023/09/24 10:45:06;;;;;;;2.38;1.50;;;;;;;;;;5034973;28;20364;-62
2023/09/24 10:47:38;;;;;;;4.55;1.25;;;;;;;;;;5032713;28;20018;-63
2023/09/24 10:50:04;;;;;;;3.63;1.65;;;;;;;;;;5029777;28;20021;-63
2023/09/24 10:52:45;;;;;;;2.75;1.30;;;;;;;;;;5034753;28;20064;-63
2023/09/24 10:55:11;;;;;;;3.53;1.60;;;;;;;;;;5034759;28;20030;-64
2023/09/24 10:57:37;;;;;;;2.53;1.20;;;;;;;;;;5032421;28;20024;-64
2023/09/24 11:00:04;;;;;;;1.92;1.30;;;;;;;;;;5033480;28;20126;-63
2023/09/24 11:02:30;;;;;;;1.85;1.20;;;;;;;;;;5018834;28;20369;-63
2023/09/24 11:05:02;;;;;;;3.25;1.20;;;;;;;;;;5034456;28;20073;-64
2023/09/24 11:07:28;;;;;;;1.23;0.73;;;;;;;;;;5033724;28;20078;-63
2023/09/24 11:09:54;;;;;;;3.58;2.33;;;;;;;;;;5039107;28;20060;-63
2023/09/24 11:12:20;;;;;;;2.50;1.00;;;;;;;;;;5035778;28;20022;-64
2023/09/24 11:14:55;;;;;;;3.17;0.73;;;;;;;;;;5028937;28;20025;-64
2023/09/24 11:17:21;;;;;;;1.25;0.93;;;;;;;;;;5039150;28;20048;-63
2023/09/24 11:19:48;;;;;;;2.90;0.88;;;;;;;;;;5034098;28;20036;-63
2023/09/24 11:22:17;;;;;;;3.97;0.95;;;;;;;;;;5029885;28;20060;-63
2023/09/24 11:24:43;;;;;;;3.85;1.00;;;;;;;;;;5034292;28;20356;-63
2023/09/24 11:27:09;;;;;;;2.45;1.13;;;;;;;;;;5031819;28;20025;-70
2023/09/24 11:29:35;;;;;;;2.53;1.30;;;;;;;;;;5038853;28;20064;-69
2023/09/24 11:32:02;;;;;;;2.17;1.25;;;;;;;;;;5042919;28;20021;-70
2023/09/24 11:34:29;;;;;;;5.45;1.88;;;;;;;;;;5033848;28;20532;-70
2023/09/24 11:36:58;;;;;;;3.53;0.90;;;;;;;;;;5040183;28;20033;-70
2023/09/24 11:39:24;;;;;;;2.85;1.02;;;;;;;;;;5038172;28;20033;-71
2023/09/24 11:41:51;;;;;;;2.10;0.82;;;;;;;;;;5034348;28;20382;-68
2023/09/24 11:44:17;;;;;;;1.45;0.60;;;;;;;;;;5047611;28;20120;-69
2023/09/24 11:46:44;;;;;;;0.88;0.50;;;;;;;;;;5031438;28;20021;-70
2023/09/24 11:49:10;;;;;;;1.80;0.60;;;;;;;;;;5027030;28;20029;-69
2023/09/24 11:51:36;;;;;;;1.23;0.80;;;;;;;;;;5033634;28;20420;-69
2023/09/24 11:54:03;;;;;;;2.78;0.80;;;;;;;;;;5031390;28;20033;-69
2023/09/24 11:56:29;;;;;;;1.63;0.95;;;;;;;;;;5033452;28;20527;-69
2023/09/24 11:58:55;;;;;;;1.98;0.80;;;;;;;;;;5033414;28;20507;-69
2023/09/24 12:01:21;;;;;;;3.38;1.50;;;;;;;;;;5040820;28;20434;-70
2023/09/24 12:03:49;;;;;;;1.75;1.17;;;;;;;;;;5033593;28;20038;-70
2023/09/24 12:06:15;;;;;;;3.28;1.42;;;;;;;;;;5031178;28;20033;-70
2023/09/24 12:08:41;;;;;;;1.70;0.90;;;;;;;;;;5042245;28;20471;-69
2023/09/24 12:11:07;;;;;;;3.58;1.33;;;;;;;;;;5015368;28;20017;-70
2023/09/24 12:13:33;;;;;;;1.52;0.70;;;;;;;;;;5028058;28;20025;-69
2023/09/24 12:15:59;;;;;;;1.83;1.02;;;;;;;;;;5033040;28;20032;-70
2023/09/24 12:18:25;;;;;;;2.30;1.25;;;;;;;;;;5030807;28;20388;-69
2023/09/24 12:20:51;;;;;;;1.33;0.95;;;;;;;;;;5010687;28;20057;-69
2023/09/24 12:23:17;;;;;;;2.28;0.90;;;;;;;;;;5024300;28;20034;-69
2023/09/24 12:25:44;;;;;;;1.30;0.65;;;;;;;;;;5033760;28;20035;-69
2023/09/24 12:28:11;;;;;;;0.55;0.52;;;;;;;;;;5032985;28;20112;-69
2023/09/24 12:30:38;;;;;;;1.02;0.57;;;;;;;;;;5028324;28;20567;-70
2023/09/24 12:33:04;;;;;;;1.35;0.60;;;;;;;;;;5039018;28;20525;-69
2023/09/24 12:35:30;;;;;;;0.95;0.80;;;;;;;;;;5036082;28;20033;-69
2023/09/24 12:37:56;;;;;;;1.50;0.70;;;;;;;;;;5031668;28;20025;-69
2023/09/24 12:40:23;;;;;;;4.03;0.75;;;;;;;;;;5032227;28;20037;-69
2023/09/24 12:42:49;;;;;;;0.85;0.60;;;;;;;;;;5033275;28;20424;-70
2023/09/24 12:45:16;;;;;;;1.55;0.90;;;;;;;;;;5012350;28;20148;-70
2023/09/24 12:47:42;;;;;;;2.08;1.00;;;;;;;;;;5046492;28;20398;-70
2023/09/24 12:50:10;;;;;;;2.25;1.50;;;;;;;;;;5030351;28;20054;-69
2023/09/24 12:52:38;;;;;;;1.30;1.20;;;;;;;;;;5031570;28;20037;-70
2023/09/24 12:55:06;;;;;;;1.85;1.00;;;;;;;;;;5032451;28;20036;-70
2023/09/24 12:57:32;;;;;;;1.08;0.98;;;;;;;;;;5029619;28;20026;-70
2023/09/24 12:59:58;;;;;;;0.85;0.85;;;;;;;;;;5032351;28;20033;-70
2023/09/24 13:02:25;;;;;;;1.63;1.20;;;;;;;;;;5029978;28;20170;-70
2023/09/24 13:04:51;;;;;;;1.30;1.20;;;;;;;;;;5046038;28;20123;-70
2023/09/24 13:07:17;;;;;;;2.05;1.08;;;;;;;;;;5014539;28;20091;-70
2023/09/24 13:09:43;;;;;;;0.95;0.90;;;;;;;;;;5037219;28;20048;-70
2023/09/24 13:12:11;;;;;;;3.28;1.90;;;;;;;;;;5033785;28;20013;-70
2023/09/24 13:14:37;;;;;;;2.05;1.85;;;;;;;;;;5009351;28;20030;-70
2023/09/24 13:17:03;;;;;;;1.70;1.33;;;;;;;;;;5014272;28;20029;-70